sensor_id;sensor_type;location;lat;lon;timestamp;pressure;altitude;pressure_sealevel;temperature;humidity
26699;BME280;14313;50.892;13.756;2022-07-29T00:01:26;97927.09;;;19.23;53.04
26699;BME280;14313;50.892;13.756;2022-07-29T00:03:52;97935.25;;;19.08;53.32
26699;BME280;14313;50.892;13.756;2022-07-29T00:06:17;97926.22;;;19.09;53.54
26699;BME280;14313;50.892;13.756;2022-07-29T00:08:42;97925.38;;;19.09;53.96
26699;BME280;14313;50.892;13.756;2022-07-29T00:11:08;97920.66;;;19.11;54.20
26699;BME280;14313;50.892;13.756;2022-07-29T00:13:33;97917.94;;;18.91;54.01
26699;BME280;14313;50.892;13.756;2022-07-29T00:15:59;97913.22;;;19.00;53.84
26699;BME280;14313;50.892;13.756;2022-07-29T00:18:24;97921.22;;;18.93;54.29
26699;BME280;14313;50.892;13.756;2022-07-29T00:20:49;97915.91;;;19.00;54.32
26699;BME280;14313;50.892;13.756;2022-07-29T00:23:15;97916.34;;;19.10;53.50
26699;BME280;14313;50.892;13.756;2022-07-29T00:25:40;97916.34;;;19.10;53.84
26699;BME280;14313;50.892;13.756;2022-07-29T00:28:06;97915.09;;;19.06;54.11
26699;BME280;14313;50.892;13.756;2022-07-29T00:30:31;97914.91;;;19.07;53.52
26699;BME280;14313;50.892;13.756;2022-07-29T00:32:56;97909.13;;;19.04;54.24
26699;BME280;14313;50.892;13.756;2022-07-29T00:35:22;97896.56;;;19.04;53.82
26699;BME280;14313;50.892;13.756;2022-07-29T00:38:05;97889.59;;;19.10;53.57
26699;BME280;14313;50.892;13.756;2022-07-29T00:40:31;97891.06;;;19.12;53.69
26699;BME280;14313;50.892;13.756;2022-07-29T00:42:56;97890.66;;;19.22;53.75
26699;BME280;14313;50.892;13.756;2022-07-29T00:45:22;97892.50;;;19.15;54.07
26699;BME280;14313;50.892;13.756;2022-07-29T00:47:47;97888.22;;;19.27;53.61
26699;BME280;14313;50.892;13.756;2022-07-29T00:50:13;97877.88;;;18.98;54.80
26699;BME280;14313;50.892;13.756;2022-07-29T00:52:40;97871.28;;;19.00;54.55
26699;BME280;14313;50.892;13.756;2022-07-29T00:55:09;97873.94;;;18.94;54.53
26699;BME280;14313;50.892;13.756;2022-07-29T00:57:35;97876.16;;;18.84;54.86
26699;BME280;14313;50.892;13.756;2022-07-29T01:00:01;97869.56;;;18.80;54.98
26699;BME280;14313;50.892;13.756;2022-07-29T01:02:27;97871.84;;;18.83;55.16
26699;BME280;14313;50.892;13.756;2022-07-29T01:04:52;97866.50;;;18.76;54.94
26699;BME280;14313;50.892;13.756;2022-07-29T01:07:18;97858.84;;;18.73;55.25
26699;BME280;14313;50.892;13.756;2022-07-29T01:09:44;97860.47;;;18.67;56.38
26699;BME280;14313;50.892;13.756;2022-07-29T01:12:11;97859.31;;;18.42;56.91
26699;BME280;14313;50.892;13.756;2022-07-29T01:14:38;97861.56;;;18.39;56.23
26699;BME280;14313;50.892;13.756;2022-07-29T01:17:14;97858.25;;;18.30;57.04
26699;BME280;14313;50.892;13.756;2022-07-29T01:20:01;97860.09;;;18.29;57.16
26699;BME280;14313;50.892;13.756;2022-07-29T01:22:35;97859.50;;;18.34;55.92
26699;BME280;14313;50.892;13.756;2022-07-29T01:25:32;97851.84;;;18.24;57.39
26699;BME280;14313;50.892;13.756;2022-07-29T01:28:39;97847.34;;;18.25;57.10
26699;BME280;14313;50.892;13.756;2022-07-29T01:31:09;97846.34;;;18.32;56.28
26699;BME280;14313;50.892;13.756;2022-07-29T01:33:43;97847.16;;;18.33;56.88
26699;BME280;14313;50.892;13.756;2022-07-29T01:36:18;97847.72;;;18.15;57.47
26699;BME280;14313;50.892;13.756;2022-07-29T01:38:47;97845.03;;;18.22;57.93
26699;BME280;14313;50.892;13.756;2022-07-29T01:41:19;97841.00;;;18.32;57.05
26699;BME280;14313;50.892;13.756;2022-07-29T01:46:20;97839.06;;;18.13;57.25
26699;BME280;14313;50.892;13.756;2022-07-29T01:48:56;97838.03;;;18.14;57.15
26699;BME280;14313;50.892;13.756;2022-07-29T01:51:32;97836.22;;;18.21;56.85
26699;BME280;14313;50.892;13.756;2022-07-29T01:54:08;97838.31;;;18.32;56.91
26699;BME280;14313;50.892;13.756;2022-07-29T01:56:36;97837.88;;;18.22;57.00
26699;BME280;14313;50.892;13.756;2022-07-29T01:59:04;97835.25;;;18.29;57.47
26699;BME280;14313;50.892;13.756;2022-07-29T02:01:33;97843.06;;;18.37;57.38
26699;BME280;14313;50.892;13.756;2022-07-29T02:04:03;97842.41;;;18.28;56.77
26699;BME280;14313;50.892;13.756;2022-07-29T02:06:29;97835.16;;;18.09;57.84
26699;BME280;14313;50.892;13.756;2022-07-29T02:08:57;97839.97;;;17.93;58.85
26699;BME280;14313;50.892;13.756;2022-07-29T02:11:23;97845.06;;;17.87;58.94
26699;BME280;14313;50.892;13.756;2022-07-29T02:13:52;97836.69;;;17.97;57.97
26699;BME280;14313;50.892;13.756;2022-07-29T02:16:18;97830.59;;;18.03;58.39
26699;BME280;14313;50.892;13.756;2022-07-29T02:18:48;97833.38;;;17.88;58.49
26699;BME280;14313;50.892;13.756;2022-07-29T02:21:19;97825.31;;;17.82;59.15
26699;BME280;14313;50.892;13.756;2022-07-29T02:23:47;97825.19;;;17.90;59.39
26699;BME280;14313;50.892;13.756;2022-07-29T02:26:13;97825.56;;;17.87;59.74
26699;BME280;14313;50.892;13.756;2022-07-29T02:28:39;97819.88;;;17.97;58.43
26699;BME280;14313;50.892;13.756;2022-07-29T02:31:06;97824.84;;;18.06;58.32
26699;BME280;14313;50.892;13.756;2022-07-29T02:33:32;97821.00;;;18.15;58.05
26699;BME280;14313;50.892;13.756;2022-07-29T02:35:59;97828.66;;;18.25;57.72
26699;BME280;14313;50.892;13.756;2022-07-29T02:38:25;97823.91;;;18.20;58.48
26699;BME280;14313;50.892;13.756;2022-07-29T02:41:13;97818.63;;;18.33;57.80
26699;BME280;14313;50.892;13.756;2022-07-29T02:43:41;97814.09;;;18.34;57.44
26699;BME280;14313;50.892;13.756;2022-07-29T02:46:12;97821.31;;;18.40;57.52
26699;BME280;14313;50.892;13.756;2022-07-29T02:48:41;97820.66;;;18.31;58.77
26699;BME280;14313;50.892;13.756;2022-07-29T02:51:17;97818.44;;;18.42;57.52
26699;BME280;14313;50.892;13.756;2022-07-29T02:53:47;97809.50;;;18.62;57.27
26699;BME280;14313;50.892;13.756;2022-07-29T02:56:16;97820.47;;;18.81;56.88
26699;BME280;14313;50.892;13.756;2022-07-29T02:58:49;97817.59;;;18.82;56.71
26699;BME280;14313;50.892;13.756;2022-07-29T03:01:21;97819.22;;;18.77;57.09
26699;BME280;14313;50.892;13.756;2022-07-29T03:03:48;97816.19;;;18.99;56.71
26699;BME280;14313;50.892;13.756;2022-07-29T03:06:15;97821.88;;;18.83;57.10
26699;BME280;14313;50.892;13.756;2022-07-29T03:08:43;97816.19;;;18.93;57.00
26699;BME280;14313;50.892;13.756;2022-07-29T03:11:10;97819.47;;;18.95;57.26
26699;BME280;14313;50.892;13.756;2022-07-29T03:13:36;97817.41;;;19.03;57.08
26699;BME280;14313;50.892;13.756;2022-07-29T03:16:02;97816.19;;;18.93;57.72
26699;BME280;14313;50.892;13.756;2022-07-29T03:18:28;97818.00;;;18.86;57.32
26699;BME280;14313;50.892;13.756;2022-07-29T03:20:54;97812.03;;;18.84;57.96
26699;BME280;14313;50.892;13.756;2022-07-29T03:23:21;97814.31;;;18.93;57.36
26699;BME280;14313;50.892;13.756;2022-07-29T03:25:48;97813.69;;;18.85;57.60
26699;BME280;14313;50.892;13.756;2022-07-29T03:28:14;97809.78;;;18.87;57.48
26699;BME280;14313;50.892;13.756;2022-07-29T03:30:39;97802.38;;;18.89;57.31
26699;BME280;14313;50.892;13.756;2022-07-29T03:33:05;97803.41;;;18.88;57.29
26699;BME280;14313;50.892;13.756;2022-07-29T03:35:30;97800.34;;;18.98;57.20
26699;BME280;14313;50.892;13.756;2022-07-29T03:37:57;97804.66;;;18.86;58.05
26699;BME280;14313;50.892;13.756;2022-07-29T03:40:37;97803.22;;;18.90;58.12
26699;BME280;14313;50.892;13.756;2022-07-29T03:43:03;97796.41;;;18.94;58.00
26699;BME280;14313;50.892;13.756;2022-07-29T03:45:31;97788.63;;;18.99;58.33
26699;BME280;14313;50.892;13.756;2022-07-29T03:48:01;97789.66;;;18.98;58.66
26699;BME280;14313;50.892;13.756;2022-07-29T03:50:29;97801.78;;;19.00;57.96
26699;BME280;14313;50.892;13.756;2022-07-29T03:52:55;97792.75;;;19.08;58.09
26699;BME280;14313;50.892;13.756;2022-07-29T03:55:20;97790.06;;;18.95;58.79
26699;BME280;14313;50.892;13.756;2022-07-29T03:57:46;97792.50;;;18.90;58.52
26699;BME280;14313;50.892;13.756;2022-07-29T04:00:13;97790.25;;;18.87;58.78
26699;BME280;14313;50.892;13.756;2022-07-29T04:02:40;97793.34;;;18.90;58.38
26699;BME280;14313;50.892;13.756;2022-07-29T04:05:13;97785.97;;;19.12;57.92
26699;BME280;14313;50.892;13.756;2022-07-29T04:07:39;97780.63;;;19.05;58.21
26699;BME280;14313;50.892;13.756;2022-07-29T04:10:05;97779.16;;;19.09;58.89
26699;BME280;14313;50.892;13.756;2022-07-29T04:12:30;97790.69;;;19.30;57.58
26699;BME280;14313;50.892;13.756;2022-07-29T04:14:55;97781.88;;;19.23;58.40
26699;BME280;14313;50.892;13.756;2022-07-29T04:17:21;97788.63;;;19.18;58.34
26699;BME280;14313;50.892;13.756;2022-07-29T04:19:46;97787.84;;;19.18;58.35
26699;BME280;14313;50.892;13.756;2022-07-29T04:22:11;97787.63;;;19.26;59.01
26699;BME280;14313;50.892;13.756;2022-07-29T04:24:37;97794.63;;;19.34;58.46
26699;BME280;14313;50.892;13.756;2022-07-29T04:27:02;97790.91;;;19.54;57.91
26699;BME280;14313;50.892;13.756;2022-07-29T04:29:27;97788.03;;;19.63;57.42
26699;BME280;14313;50.892;13.756;2022-07-29T04:31:53;97796.91;;;19.63;57.60
26699;BME280;14313;50.892;13.756;2022-07-29T04:34:18;97796.06;;;19.56;58.40
26699;BME280;14313;50.892;13.756;2022-07-29T04:36:43;97800.59;;;19.55;58.47
26699;BME280;14313;50.892;13.756;2022-07-29T04:39:09;97799.13;;;19.59;58.85
26699;BME280;14313;50.892;13.756;2022-07-29T04:41:35;97792.75;;;19.67;58.37
26699;BME280;14313;50.892;13.756;2022-07-29T04:44:00;97801.19;;;19.77;59.00
26699;BME280;14313;50.892;13.756;2022-07-29T04:46:30;97804.84;;;19.96;58.55
26699;BME280;14313;50.892;13.756;2022-07-29T04:48:55;97805.91;;;19.95;58.11
26699;BME280;14313;50.892;13.756;2022-07-29T04:51:20;97811.00;;;20.10;57.09
26699;BME280;14313;50.892;13.756;2022-07-29T04:53:45;97804.56;;;20.24;57.22
26699;BME280;14313;50.892;13.756;2022-07-29T04:56:11;97814.44;;;20.30;57.28
26699;BME280;14313;50.892;13.756;2022-07-29T04:58:36;97813.00;;;20.40;58.03
26699;BME280;14313;50.892;13.756;2022-07-29T05:01:02;97807.41;;;20.42;57.49
26699;BME280;14313;50.892;13.756;2022-07-29T05:03:27;97810.25;;;20.54;57.85
26699;BME280;14313;50.892;13.756;2022-07-29T05:05:53;97810.44;;;20.59;57.32
26699;BME280;14313;50.892;13.756;2022-07-29T05:08:18;97800.47;;;20.72;57.58
26699;BME280;14313;50.892;13.756;2022-07-29T05:10:43;97799.09;;;20.95;56.72
26699;BME280;14313;50.892;13.756;2022-07-29T05:13:09;97803.78;;;21.06;56.25
26699;BME280;14313;50.892;13.756;2022-07-29T05:15:35;97791.22;;;21.00;56.30
26699;BME280;14313;50.892;13.756;2022-07-29T05:18:00;97796.75;;;21.05;55.07
26699;BME280;14313;50.892;13.756;2022-07-29T05:20:27;97805.59;;;21.18;55.11
26699;BME280;14313;50.892;13.756;2022-07-29T05:22:57;97790.31;;;21.44;54.16
26699;BME280;14313;50.892;13.756;2022-07-29T05:25:26;97792.09;;;21.75;53.32
26699;BME280;14313;50.892;13.756;2022-07-29T05:27:52;97787.09;;;22.21;51.72
26699;BME280;14313;50.892;13.756;2022-07-29T05:30:17;97787.63;;;22.60;51.15
26699;BME280;14313;50.892;13.756;2022-07-29T05:32:43;97790.66;;;23.11;50.85
26699;BME280;14313;50.892;13.756;2022-07-29T05:35:08;97793.88;;;23.43;50.56
26699;BME280;14313;50.892;13.756;2022-07-29T05:37:34;97795.78;;;23.89;49.60
26699;BME280;14313;50.892;13.756;2022-07-29T05:39:59;97789.31;;;24.25;49.41
26699;BME280;14313;50.892;13.756;2022-07-29T05:42:25;97795.63;;;24.71;48.37
26699;BME280;14313;50.892;13.756;2022-07-29T05:44:51;97788.94;;;25.01;47.56
26699;BME280;14313;50.892;13.756;2022-07-29T05:47:16;97787.81;;;25.14;47.14
26699;BME280;14313;50.892;13.756;2022-07-29T05:49:41;97793.13;;;25.09;46.75
26699;BME280;14313;50.892;13.756;2022-07-29T05:52:07;97796.25;;;25.18;45.92
26699;BME280;14313;50.892;13.756;2022-07-29T05:54:32;97796.16;;;25.29;46.47
26699;BME280;14313;50.892;13.756;2022-07-29T05:56:57;97793.00;;;25.32;45.59
26699;BME280;14313;50.892;13.756;2022-07-29T05:59:23;97803.47;;;25.45;45.58
26699;BME280;14313;50.892;13.756;2022-07-29T06:01:48;97789.56;;;25.54;45.79
26699;BME280;14313;50.892;13.756;2022-07-29T06:04:13;97792.53;;;25.69;45.57
26699;BME280;14313;50.892;13.756;2022-07-29T06:06:39;97791.50;;;25.92;45.39
26699;BME280;14313;50.892;13.756;2022-07-29T06:09:04;97788.88;;;25.97;45.41
26699;BME280;14313;50.892;13.756;2022-07-29T06:11:29;97791.25;;;25.93;46.00
26699;BME280;14313;50.892;13.756;2022-07-29T06:13:55;97787.25;;;25.96;45.59
26699;BME280;14313;50.892;13.756;2022-07-29T06:16:20;97795.09;;;25.97;45.89
26699;BME280;14313;50.892;13.756;2022-07-29T06:18:45;97790.19;;;26.11;45.83
26699;BME280;14313;50.892;13.756;2022-07-29T06:21:11;97792.28;;;26.25;45.03
26699;BME280;14313;50.892;13.756;2022-07-29T06:23:37;97795.63;;;26.54;45.08
26699;BME280;14313;50.892;13.756;2022-07-29T06:26:03;97802.91;;;26.54;45.08
26699;BME280;14313;50.892;13.756;2022-07-29T06:28:28;97798.97;;;26.61;44.61
26699;BME280;14313;50.892;13.756;2022-07-29T06:30:54;97800.19;;;26.76;44.14
26699;BME280;14313;50.892;13.756;2022-07-29T06:33:19;97802.91;;;26.97;44.36
26699;BME280;14313;50.892;13.756;2022-07-29T06:35:45;97804.16;;;27.17;45.08
26699;BME280;14313;50.892;13.756;2022-07-29T06:38:12;97808.56;;;27.23;43.47
26699;BME280;14313;50.892;13.756;2022-07-29T06:40:43;97806.38;;;27.25;44.21
26699;BME280;14313;50.892;13.756;2022-07-29T06:43:28;97810.19;;;26.97;43.37
26699;BME280;14313;50.892;13.756;2022-07-29T06:45:58;97803.59;;;27.14;43.27
26699;BME280;14313;50.892;13.756;2022-07-29T06:48:23;97797.59;;;27.39;43.50
26699;BME280;14313;50.892;13.756;2022-07-29T06:50:49;97805.25;;;27.47;41.49
26699;BME280;14313;50.892;13.756;2022-07-29T06:53:14;97806.16;;;27.53;42.27
26699;BME280;14313;50.892;13.756;2022-07-29T06:55:40;97798.41;;;27.40;42.60
26699;BME280;14313;50.892;13.756;2022-07-29T06:58:05;97794.16;;;27.49;43.58
26699;BME280;14313;50.892;13.756;2022-07-29T07:00:32;97804.31;;;27.64;43.60
26699;BME280;14313;50.892;13.756;2022-07-29T07:02:57;97796.44;;;27.62;42.39
26699;BME280;14313;50.892;13.756;2022-07-29T07:05:22;97804.91;;;27.71;42.78
26699;BME280;14313;50.892;13.756;2022-07-29T07:07:47;97801.34;;;27.65;42.90
26699;BME280;14313;50.892;13.756;2022-07-29T07:10:13;97803.66;;;27.83;42.49
26699;BME280;14313;50.892;13.756;2022-07-29T07:12:38;97804.13;;;27.75;42.43
26699;BME280;14313;50.892;13.756;2022-07-29T07:15:04;97813.03;;;27.71;42.38
26699;BME280;14313;50.892;13.756;2022-07-29T07:17:29;97813.81;;;28.03;42.39
26699;BME280;14313;50.892;13.756;2022-07-29T07:19:55;97816.44;;;28.30;41.82
26699;BME280;14313;50.892;13.756;2022-07-29T07:22:20;97812.69;;;28.41;41.62
26699;BME280;14313;50.892;13.756;2022-07-29T07:24:45;97811.94;;;28.56;42.10
26699;BME280;14313;50.892;13.756;2022-07-29T07:27:10;97807.88;;;28.58;41.42
26699;BME280;14313;50.892;13.756;2022-07-29T07:29:36;97810.97;;;28.77;41.30
26699;BME280;14313;50.892;13.756;2022-07-29T07:32:01;97815.34;;;28.88;41.71
26699;BME280;14313;50.892;13.756;2022-07-29T07:34:27;97812.56;;;28.78;40.78
26699;BME280;14313;50.892;13.756;2022-07-29T07:36:52;97809.09;;;28.83;41.45
26699;BME280;14313;50.892;13.756;2022-07-29T07:39:17;97813.72;;;28.87;40.20
26699;BME280;14313;50.892;13.756;2022-07-29T07:41:43;97802.28;;;28.80;39.65
26699;BME280;14313;50.892;13.756;2022-07-29T07:44:08;97799.59;;;28.85;39.53
26699;BME280;14313;50.892;13.756;2022-07-29T07:46:33;97801.50;;;28.90;39.37
26699;BME280;14313;50.892;13.756;2022-07-29T07:48:58;97809.69;;;29.10;39.16
26699;BME280;14313;50.892;13.756;2022-07-29T07:51:24;97801.28;;;29.16;39.56
26699;BME280;14313;50.892;13.756;2022-07-29T07:53:49;97798.28;;;29.08;39.41
26699;BME280;14313;50.892;13.756;2022-07-29T07:56:16;97801.31;;;29.32;39.43
26699;BME280;14313;50.892;13.756;2022-07-29T07:58:41;97799.16;;;29.49;38.68
26699;BME280;14313;50.892;13.756;2022-07-29T08:01:07;97798.88;;;29.71;38.54
26699;BME280;14313;50.892;13.756;2022-07-29T08:03:33;97793.72;;;29.79;38.51
26699;BME280;14313;50.892;13.756;2022-07-29T08:05:58;97794.22;;;29.86;38.98
26699;BME280;14313;50.892;13.756;2022-07-29T08:08:23;97795.81;;;30.23;38.40
26699;BME280;14313;50.892;13.756;2022-07-29T08:10:49;97793.81;;;30.43;37.82
26699;BME280;14313;50.892;13.756;2022-07-29T08:13:18;97785.28;;;30.75;37.53
26699;BME280;14313;50.892;13.756;2022-07-29T08:15:44;97786.94;;;30.71;37.53
26699;BME280;14313;50.892;13.756;2022-07-29T08:18:11;97780.63;;;30.81;37.39
26699;BME280;14313;50.892;13.756;2022-07-29T08:20:37;97785.63;;;31.13;36.89
26699;BME280;14313;50.892;13.756;2022-07-29T08:23:04;97780.50;;;31.40;36.60
26699;BME280;14313;50.892;13.756;2022-07-29T08:25:37;97780.78;;;31.44;36.64
26699;BME280;14313;50.892;13.756;2022-07-29T08:28:04;97781.81;;;31.48;36.65
26699;BME280;14313;50.892;13.756;2022-07-29T08:30:29;97773.09;;;31.46;36.95
26699;BME280;14313;50.892;13.756;2022-07-29T08:32:55;97782.00;;;31.61;37.35
26699;BME280;14313;50.892;13.756;2022-07-29T08:35:22;97777.41;;;31.52;36.48
26699;BME280;14313;50.892;13.756;2022-07-29T08:37:48;97780.00;;;31.38;37.03
26699;BME280;14313;50.892;13.756;2022-07-29T08:40:13;97780.00;;;31.72;36.46
26699;BME280;14313;50.892;13.756;2022-07-29T08:42:39;97781.44;;;31.93;35.70
26699;BME280;14313;50.892;13.756;2022-07-29T08:45:05;97785.41;;;31.77;35.67
26699;BME280;14313;50.892;13.756;2022-07-29T08:47:31;97783.72;;;31.81;35.97
26699;BME280;14313;50.892;13.756;2022-07-29T08:49:56;97790.53;;;31.50;36.46
26699;BME280;14313;50.892;13.756;2022-07-29T08:52:25;97784.09;;;31.36;36.04
26699;BME280;14313;50.892;13.756;2022-07-29T08:54:52;97785.69;;;31.42;36.41
26699;BME280;14313;50.892;13.756;2022-07-29T08:57:18;97789.63;;;31.64;36.27
26699;BME280;14313;50.892;13.756;2022-07-29T08:59:46;97777.63;;;31.60;36.54
26699;BME280;14313;50.892;13.756;2022-07-29T09:02:21;97777.94;;;31.59;35.86
26699;BME280;14313;50.892;13.756;2022-07-29T09:04:47;97778.78;;;31.54;35.80
26699;BME280;14313;50.892;13.756;2022-07-29T09:07:18;97779.28;;;31.61;35.26
26699;BME280;14313;50.892;13.756;2022-07-29T09:09:43;97775.50;;;31.52;35.01
26699;BME280;14313;50.892;13.756;2022-07-29T09:12:12;97776.94;;;31.79;34.99
26699;BME280;14313;50.892;13.756;2022-07-29T09:14:38;97779.41;;;32.04;34.61
26699;BME280;14313;50.892;13.756;2022-07-29T09:17:04;97773.88;;;32.14;34.86
26699;BME280;14313;50.892;13.756;2022-07-29T09:19:31;97771.00;;;32.48;34.11
26699;BME280;14313;50.892;13.756;2022-07-29T09:22:01;97765.84;;;32.46;33.61
26699;BME280;14313;50.892;13.756;2022-07-29T09:24:43;97773.84;;;32.38;33.89
26699;BME280;14313;50.892;13.756;2022-07-29T09:29:42;97772.00;;;32.57;33.21
26699;BME280;14313;50.892;13.756;2022-07-29T09:32:09;97768.94;;;33.01;32.88
26699;BME280;14313;50.892;13.756;2022-07-29T09:34:34;97769.88;;;33.10;32.92
26699;BME280;14313;50.892;13.756;2022-07-29T09:37:00;97778.22;;;33.24;32.36
26699;BME280;14313;50.892;13.756;2022-07-29T09:39:35;97777.69;;;33.22;32.03
26699;BME280;14313;50.892;13.756;2022-07-29T09:42:03;97773.28;;;32.83;31.54
26699;BME280;14313;50.892;13.756;2022-07-29T09:44:43;97780.59;;;32.45;31.94
26699;BME280;14313;50.892;13.756;2022-07-29T09:47:09;97771.50;;;32.02;32.52
26699;BME280;14313;50.892;13.756;2022-07-29T09:49:35;97769.66;;;32.27;31.97
26699;BME280;14313;50.892;13.756;2022-07-29T09:52:09;97765.63;;;31.61;33.40
26699;BME280;14313;50.892;13.756;2022-07-29T09:54:35;97767.41;;;31.76;32.98
26699;BME280;14313;50.892;13.756;2022-07-29T09:57:08;97769.13;;;30.89;33.59
26699;BME280;14313;50.892;13.756;2022-07-29T09:59:38;97764.53;;;31.62;33.12
26699;BME280;14313;50.892;13.756;2022-07-29T10:02:13;97749.78;;;32.64;32.83
26699;BME280;14313;50.892;13.756;2022-07-29T10:04:42;97760.00;;;33.14;32.14
26699;BME280;14313;50.892;13.756;2022-07-29T10:07:08;97770.81;;;32.21;32.16
26699;BME280;14313;50.892;13.756;2022-07-29T10:09:33;97753.03;;;32.47;31.41
26699;BME280;14313;50.892;13.756;2022-07-29T10:12:07;97760.59;;;33.11;30.58
26699;BME280;14313;50.892;13.756;2022-07-29T10:14:34;97762.63;;;33.89;30.58
26699;BME280;14313;50.892;13.756;2022-07-29T10:17:00;97754.22;;;34.54;29.70
26699;BME280;14313;50.892;13.756;2022-07-29T10:19:28;97766.13;;;33.44;30.56
26699;BME280;14313;50.892;13.756;2022-07-29T10:21:56;97760.13;;;33.04;31.16
26699;BME280;14313;50.892;13.756;2022-07-29T10:24:22;97756.19;;;33.34;30.90
26699;BME280;14313;50.892;13.756;2022-07-29T10:26:49;97753.69;;;34.79;29.75
26699;BME280;14313;50.892;13.756;2022-07-29T10:29:15;97750.41;;;34.41;29.08
26699;BME280;14313;50.892;13.756;2022-07-29T10:32:07;97758.94;;;34.26;29.79
26699;BME280;14313;50.892;13.756;2022-07-29T10:35:01;97758.06;;;33.66;30.09
26699;BME280;14313;50.892;13.756;2022-07-29T10:40:57;97764.94;;;33.12;30.51
26699;BME280;14313;50.892;13.756;2022-07-29T10:43:46;97762.06;;;34.19;29.74
26699;BME280;14313;50.892;13.756;2022-07-29T10:46:14;97752.97;;;34.87;29.87
26699;BME280;14313;50.892;13.756;2022-07-29T10:54:15;97747.69;;;35.71;28.46
26699;BME280;14313;50.892;13.756;2022-07-29T10:56:41;97751.28;;;35.58;29.22
26699;BME280;14313;50.892;13.756;2022-07-29T11:01:48;97740.88;;;36.39;28.25
26699;BME280;14313;50.892;13.756;2022-07-29T11:04:15;97734.50;;;35.29;28.90
26699;BME280;14313;50.892;13.756;2022-07-29T11:09:30;97737.13;;;37.00;27.60
26699;BME280;14313;50.892;13.756;2022-07-29T11:11:59;97738.34;;;36.60;28.24
26699;BME280;14313;50.892;13.756;2022-07-29T11:17:20;97739.28;;;33.78;30.92
26699;BME280;14313;50.892;13.756;2022-07-29T11:19:46;97737.63;;;34.37;30.09
26699;BME280;14313;50.892;13.756;2022-07-29T11:22:33;97738.81;;;34.72;29.24
26699;BME280;14313;50.892;13.756;2022-07-29T11:25:16;97734.03;;;33.49;30.95
26699;BME280;14313;50.892;13.756;2022-07-29T11:27:42;97739.41;;;33.87;30.58
26699;BME280;14313;50.892;13.756;2022-07-29T11:30:08;97736.69;;;34.14;30.25
26699;BME280;14313;50.892;13.756;2022-07-29T11:32:44;97737.78;;;34.13;31.02
26699;BME280;14313;50.892;13.756;2022-07-29T11:35:19;97742.28;;;34.36;30.41
26699;BME280;14313;50.892;13.756;2022-07-29T11:38:39;97735.78;;;34.18;30.57
26699;BME280;14313;50.892;13.756;2022-07-29T11:41:30;97740.44;;;34.04;30.57
26699;BME280;14313;50.892;13.756;2022-07-29T11:44:01;97736.25;;;34.07;31.08
26699;BME280;14313;50.892;13.756;2022-07-29T11:46:46;97731.53;;;32.83;32.46
26699;BME280;14313;50.892;13.756;2022-07-29T11:49:19;97737.22;;;32.68;32.57
26699;BME280;14313;50.892;13.756;2022-07-29T11:51:50;97731.13;;;32.89;31.86
26699;BME280;14313;50.892;13.756;2022-07-29T11:54:23;97723.50;;;34.71;30.19
26699;BME280;14313;50.892;13.756;2022-07-29T11:56:49;97729.78;;;35.74;30.29
26699;BME280;14313;50.892;13.756;2022-07-29T11:59:15;97730.63;;;35.61;28.97
26699;BME280;14313;50.892;13.756;2022-07-29T12:01:58;97731.41;;;33.44;31.03
26699;BME280;14313;50.892;13.756;2022-07-29T12:04:24;97727.69;;;34.27;30.33
26699;BME280;14313;50.892;13.756;2022-07-29T12:06:53;97725.66;;;34.33;30.14
26699;BME280;14313;50.892;13.756;2022-07-29T12:09:20;97733.63;;;33.74;31.01
26699;BME280;14313;50.892;13.756;2022-07-29T12:11:46;97734.63;;;32.76;31.99
26699;BME280;14313;50.892;13.756;2022-07-29T12:14:32;97732.16;;;35.67;29.10
26699;BME280;14313;50.892;13.756;2022-07-29T12:16:59;97722.66;;;36.04;29.32
26699;BME280;14313;50.892;13.756;2022-07-29T12:19:27;97732.25;;;37.58;27.96
26699;BME280;14313;50.892;13.756;2022-07-29T12:21:54;97723.66;;;38.44;26.08
26699;BME280;14313;50.892;13.756;2022-07-29T12:24:20;97730.97;;;36.86;27.79
26699;BME280;14313;50.892;13.756;2022-07-29T12:26:53;97716.38;;;38.48;26.70
26699;BME280;14313;50.892;13.756;2022-07-29T12:29:19;97720.72;;;38.78;26.62
26699;BME280;14313;50.892;13.756;2022-07-29T12:31:45;97712.09;;;39.87;25.72
26699;BME280;14313;50.892;13.756;2022-07-29T12:34:15;97716.34;;;38.77;26.69
26699;BME280;14313;50.892;13.756;2022-07-29T12:36:42;97713.28;;;40.10;24.92
26699;BME280;14313;50.892;13.756;2022-07-29T12:39:08;97721.50;;;41.63;24.78
26699;BME280;14313;50.892;13.756;2022-07-29T12:41:34;97703.06;;;42.30;22.94
26699;BME280;14313;50.892;13.756;2022-07-29T12:43:59;97713.16;;;39.94;24.64
26699;BME280;14313;50.892;13.756;2022-07-29T12:46:25;97714.22;;;40.38;24.09
26699;BME280;14313;50.892;13.756;2022-07-29T12:48:53;97713.22;;;41.79;24.01
26699;BME280;14313;50.892;13.756;2022-07-29T12:51:32;97706.44;;;42.07;23.23
26699;BME280;14313;50.892;13.756;2022-07-29T12:54:07;97701.19;;;42.69;23.50
26699;BME280;14313;50.892;13.756;2022-07-29T12:56:35;97695.13;;;41.25;23.26
26699;BME280;14313;50.892;13.756;2022-07-29T12:59:11;97692.97;;;41.47;23.02
26699;BME280;14313;50.892;13.756;2022-07-29T13:01:36;97685.88;;;41.34;23.88
26699;BME280;14313;50.892;13.756;2022-07-29T13:04:02;97694.69;;;39.74;24.88
26699;BME280;14313;50.892;13.756;2022-07-29T13:06:45;97689.63;;;38.48;26.46
26699;BME280;14313;50.892;13.756;2022-07-29T13:09:16;97683.25;;;39.39;26.25
26699;BME280;14313;50.892;13.756;2022-07-29T13:11:48;97688.81;;;39.31;25.88
26699;BME280;14313;50.892;13.756;2022-07-29T13:14:36;97690.06;;;38.29;26.10
26699;BME280;14313;50.892;13.756;2022-07-29T13:19:46;97692.28;;;37.98;26.82
26699;BME280;14313;50.892;13.756;2022-07-29T13:22:14;97702.81;;;38.05;25.99